Time;durP1;ratioP1;P1;durP2;ratioP2;P2;SDS_P1;SDS_P2;PMS_P1;PMS_P2;Temp;Humidity;BMP_temperature;BMP_pressure;BME280_temperature;BME280_humidity;BME280_pressure;Samples;Min_cycle;Max_cycle;Signal;HPM_P1;HPM_P2
2021/07/31 00:01:07;;;;;;;;;3.50;3.50;;;;;23.68;40.85;100660.34;5058112;28;45312;-56
2021/07/31 00:03:33;;;;;;;;;3.50;3.00;;;;;23.66;40.82;100663.09;5057716;28;47082;-55
2021/07/31 00:05:59;;;;;;;;;2.25;2.25;;;;;23.66;40.83;100655.16;5057816;28;45395;-58
2021/07/31 00:08:25;;;;;;;;;1.75;1.00;;;;;23.65;40.97;100660.56;5058042;28;45355;-55
2021/07/31 00:10:50;;;;;;;;;2.25;2.25;;;;;23.65;40.88;100665.84;5057744;28;45545;-55
2021/07/31 00:13:16;;;;;;;;;2.00;2.00;;;;;23.62;40.77;100659.81;5057351;28;46640;-55
2021/07/31 00:15:41;;;;;;;;;2.25;2.25;;;;;23.61;40.85;100671.34;5058010;28;45337;-52
2021/07/31 00:18:07;;;;;;;;;3.00;2.00;;;;;23.60;41.00;100672.31;5058070;28;45357;-53
2021/07/31 00:20:33;;;;;;;;;2.00;2.00;;;;;23.60;40.84;100674.13;5057940;28;45569;-58
2021/07/31 00:22:58;;;;;;;;;1.25;1.25;;;;;23.59;40.83;100672.44;5039388;28;46263;-55
2021/07/31 00:25:23;;;;;;;;;1.25;1.25;;;;;23.59;40.73;100672.44;5057442;28;45407;-55
2021/07/31 00:27:49;;;;;;;;;4.25;2.25;;;;;23.58;40.58;100671.59;5057702;28;45341;-56
2021/07/31 00:30:14;;;;;;;;;2.00;2.00;;;;;23.58;41.01;100681.31;5057684;28;45367;-51
2021/07/31 00:32:39;;;;;;;;;2.50;2.50;;;;;23.57;40.77;100674.34;5057729;28;46168;-59
2021/07/31 00:35:05;;;;;;;;;4.00;2.25;;;;;23.55;41.05;100669.16;5057540;28;45321;-58
2021/07/31 00:37:30;;;;;;;;;2.25;2.25;;;;;23.55;40.60;100671.81;5057476;28;45219;-58
2021/07/31 00:39:56;;;;;;;;;1.50;1.25;;;;;23.55;41.00;100676.22;5057387;28;45341;-58
2021/07/31 00:42:21;;;;;;;;;4.00;2.00;;;;;23.55;41.00;100665.66;5057201;28;45341;-59
2021/07/31 00:44:46;;;;;;;;;1.75;1.25;;;;;23.53;40.95;100664.94;5056832;28;58833;-55
2021/07/31 00:47:12;;;;;;;;;4.50;3.25;;;;;23.52;41.02;100663.25;5057658;28;45371;-56
2021/07/31 00:49:38;;;;;;;;;2.50;1.50;;;;;23.53;40.75;100672.88;5057446;28;45855;-53
2021/07/31 00:52:05;;;;;;;;;2.25;2.25;;;;;23.52;40.68;100671.19;5039152;28;46812;-53
2021/07/31 00:54:31;;;;;;;;;1.50;1.50;;;;;23.52;41.27;100671.19;5057125;28;45413;-55
2021/07/31 00:56:57;;;;;;;;;2.00;2.00;;;;;23.50;40.85;100668.63;5057260;28;45529;-54
2021/07/31 00:59:23;;;;;;;;;4.00;3.00;;;;;23.49;41.10;100666.94;5057444;28;45571;-59
2021/07/31 01:01:48;;;;;;;;;2.00;2.00;;;;;23.48;41.02;100662.63;5038727;28;46945;-59
2021/07/31 01:04:14;;;;;;;;;3.75;2.25;;;;;23.49;40.90;100671.38;5057155;28;45627;-51
2021/07/31 01:06:40;;;;;;;;;1.25;1.25;;;;;23.47;41.32;100666.22;5057017;28;45359;-56
2021/07/31 01:09:05;;;;;;;;;1.75;1.75;;;;;23.46;41.17;100670.66;5057154;28;45235;-57
2021/07/31 01:11:33;;;;;;;;;1.50;1.50;;;;;23.47;41.08;100667.06;5056737;28;46212;-58
2021/07/31 01:13:59;;;;;;;;;2.75;2.25;;;;;23.46;41.19;100668.00;5056726;28;45379;-56
2021/07/31 01:16:24;;;;;;;;;2.25;2.00;;;;;23.48;41.30;100670.56;5056916;28;45387;-58
2021/07/31 01:18:50;;;;;;;;;1.25;1.25;;;;;23.46;41.43;100668.00;5056903;28;45421;-59
2021/07/31 01:21:36;;;;;;;;;4.00;2.00;;;;;23.47;41.16;100675.00;5056756;28;46485;-55
2021/07/31 01:24:01;;;;;;;;;2.75;2.75;;;;;23.46;41.28;100670.66;5055462;28;45443;-57
2021/07/31 01:26:26;;;;;;;;;2.00;2.00;;;;;23.46;41.41;100670.66;5056702;28;45526;-56
2021/07/31 01:28:52;;;;;;;;;2.75;1.25;;;;;23.44;41.07;100669.91;5056938;28;45813;-55
2021/07/31 01:31:17;;;;;;;;;2.50;2.00;;;;;23.45;41.33;100671.59;5056579;28;46641;-53
2021/07/31 01:33:42;;;;;;;;;2.50;2.00;;;;;23.46;41.29;100669.81;5056942;28;45394;-55
2021/07/31 01:36:08;;;;;;;;;2.75;2.75;;;;;23.45;41.44;100671.59;5056039;28;53164;-56
2021/07/31 01:38:33;;;;;;;;;2.75;2.00;;;;;23.45;41.22;100676.88;5056512;28;45529;-54
2021/07/31 01:40:58;;;;;;;;;3.00;2.00;;;;;23.46;41.56;100673.28;5056267;28;46087;-58
2021/07/31 01:43:24;;;;;;;;;4.00;3.25;;;;;23.46;41.29;100681.22;5056506;28;45253;-57
2021/07/31 01:45:49;;;;;;;;;1.25;1.25;;;;;23.46;41.44;100670.66;5056670;28;45311;-59
2021/07/31 01:48:14;;;;;;;;;3.00;2.75;;;;;23.46;41.66;100683.88;5056904;28;45606;-55
2021/07/31 01:50:42;;;;;;;;;1.00;1.00;;;;;23.46;41.39;100681.22;5056008;28;46268;-57
2021/07/31 01:53:07;;;;;;;;;2.75;2.75;;;;;23.45;41.56;100682.19;5055969;28;45399;-58
2021/07/31 01:55:33;;;;;;;;;2.50;2.50;;;;;23.45;41.49;100681.34;5056627;28;45990;-55
2021/07/31 01:57:58;;;;;;;;;2.00;2.00;;;;;23.44;41.70;100675.19;5056431;28;45545;-56
2021/07/31 02:00:23;;;;;;;;;3.00;2.00;;;;;23.44;41.56;100674.38;5055899;28;46269;-55
2021/07/31 02:02:48;;;;;;;;;1.00;1.00;;;;;23.43;42.00;100677.97;5056043;28;45355;-59
2021/07/31 02:05:14;;;;;;;;;4.25;3.50;;;;;23.43;41.78;100672.66;5056649;28;45274;-56
2021/07/31 02:07:39;;;;;;;;;2.00;1.00;;;;;23.43;41.45;100675.31;5056398;28;45392;-58
2021/07/31 02:10:05;;;;;;;;;1.00;1.00;;;;;23.40;41.86;100679.03;5055682;28;55591;-58
2021/07/31 02:12:30;;;;;;;;;2.00;2.00;;;;;23.39;41.64;100672.03;5056027;28;45340;-58
2021/07/31 02:14:56;;;;;;;;;3.00;2.00;;;;;23.38;41.61;100667.72;5056137;28;45430;-58
2021/07/31 02:17:21;;;;;;;;;3.25;2.00;;;;;23.37;41.58;100660.72;5037964;28;45348;-58
2021/07/31 02:19:46;;;;;;;;;0.50;0.50;;;;;23.38;41.58;100658.91;5056195;28;48378;-57
2021/07/31 02:22:12;;;;;;;;;1.50;1.50;;;;;23.36;42.18;100658.19;5055584;28;45373;-56
2021/07/31 02:24:37;;;;;;;;;2.25;2.25;;;;;23.36;42.07;100664.31;5055924;28;45633;-57
2021/07/31 02:27:03;;;;;;;;;2.00;2.00;;;;;23.37;41.89;100662.53;5056117;28;45640;-55
2021/07/31 02:29:28;;;;;;;;;2.75;2.00;;;;;23.35;42.19;100659.97;5055853;28;46907;-59
2021/07/31 02:31:53;;;;;;;;;3.25;2.25;;;;;23.36;42.13;100655.56;5055640;28;45246;-59
2021/07/31 02:34:19;;;;;;;;;3.75;2.75;;;;;23.35;42.00;100661.78;5057525;28;45346;-59
2021/07/31 02:36:44;;;;;;;;;4.50;3.75;;;;;23.34;42.37;100655.63;5059599;28;45545;-59
2021/07/31 02:39:09;;;;;;;;;2.00;2.00;;;;;23.33;42.65;100653.13;5059186;28;45265;-59
2021/07/31 02:41:35;;;;;;;;;2.50;2.50;;;;;23.33;42.20;100656.59;5059424;28;45329;-58
2021/07/31 02:44:00;;;;;;;;;2.25;2.25;;;;;23.34;42.27;100652.16;5059164;28;45277;-58
2021/07/31 02:46:25;;;;;;;;;3.00;3.00;;;;;23.33;42.28;100646.00;5059541;28;45501;-57
2021/07/31 02:48:51;;;;;;;;;1.25;1.25;;;;;23.35;42.22;100653.88;5041129;28;48248;-56
2021/07/31 02:51:18;;;;;;;;;2.50;1.25;;;;;23.34;42.21;100647.72;5058939;28;53347;-58
2021/07/31 02:53:43;;;;;;;;;2.50;2.50;;;;;23.34;42.25;100653.00;5059225;28;45451;-58
2021/07/31 02:56:08;;;;;;;;;2.25;1.25;;;;;23.34;42.58;100650.34;5059311;28;45630;-59
2021/07/31 02:58:34;;;;;;;;;3.25;2.00;;;;;23.34;42.42;100649.53;5040831;28;47557;-59
2021/07/31 03:01:08;;;;;;;;;2.25;2.00;;;;;23.34;42.34;100645.06;5058737;28;45542;-58
2021/07/31 03:03:34;;;;;;;;;1.00;1.00;;;;;23.35;42.29;100645.94;5040647;28;45509;-55
2021/07/31 03:06:00;;;;;;;;;4.00;3.00;;;;;23.35;42.22;100648.56;5058882;28;45528;-55
2021/07/31 03:08:27;;;;;;;;;3.00;2.25;;;;;23.35;42.44;100648.56;5058881;28;47300;-55
2021/07/31 03:11:01;;;;;;;;;2.00;2.00;;;;;23.34;42.24;100653.00;5058927;28;45336;-55
2021/07/31 03:13:26;;;;;;;;;1.00;1.00;;;;;23.34;42.40;100645.06;5058886;28;45470;-57
2021/07/31 03:15:53;;;;;;;;;1.50;1.50;;;;;23.32;42.21;100646.97;5059313;28;45569;-56
2021/07/31 03:18:18;;;;;;;;;3.00;2.00;;;;;23.33;42.33;100646.00;5058746;28;47147;-57
2021/07/31 03:20:45;;;;;;;;;2.00;2.00;;;;;23.31;42.40;100643.50;5058656;28;45396;-58
2021/07/31 03:23:12;;;;;;;;;1.00;1.00;;;;;23.32;42.58;100646.97;5058834;28;45376;-59
2021/07/31 03:25:37;;;;;;;;;3.25;2.00;;;;;23.31;42.38;100646.13;5058931;28;45621;-57
2021/07/31 03:28:03;;;;;;;;;3.50;2.50;;;;;23.32;42.53;100644.31;5058292;28;46423;-58
2021/07/31 03:30:28;;;;;;;;;2.50;2.00;;;;;23.31;42.49;100651.44;5058571;28;45388;-57
2021/07/31 03:32:53;;;;;;;;;0.75;0.75;;;;;23.31;42.50;100645.31;5058378;28;45435;-55
2021/07/31 03:35:19;;;;;;;;;2.25;2.00;;;;;23.30;42.38;100647.09;5058909;28;45462;-54
2021/07/31 03:37:44;;;;;;;;;2.25;2.00;;;;;23.30;42.42;100643.59;5058242;28;46193;-55
2021/07/31 03:40:09;;;;;;;;;2.00;2.00;;;;;23.30;42.63;100651.53;5058275;28;45360;-57
2021/07/31 03:42:35;;;;;;;;;2.25;2.25;;;;;23.29;42.83;100649.84;5058351;28;45418;-58
2021/07/31 03:45:00;;;;;;;;;2.00;2.00;;;;;23.29;42.66;100644.56;5057938;28;45312;-56
2021/07/31 03:47:25;;;;;;;;;1.00;1.00;;;;;23.28;42.45;100650.81;5057490;28;45501;-58
2021/07/31 03:49:50;;;;;;;;;3.00;3.00;;;;;23.28;42.55;100653.44;5057795;28;51949;-55
2021/07/31 03:52:16;;;;;;;;;3.75;2.25;;;;;23.27;42.46;100657.03;5058236;28;45411;-54
2021/07/31 03:54:41;;;;;;;;;3.00;2.00;;;;;23.26;42.79;100655.34;5058381;28;45332;-55
2021/07/31 03:57:06;;;;;;;;;2.00;2.00;;;;;23.26;42.62;100658.00;5057879;28;46578;-59
2021/07/31 03:59:32;;;;;;;;;1.50;1.50;;;;;23.27;42.55;100670.25;5057963;28;45494;-56
2021/07/31 04:01:57;;;;;;;;;3.25;2.00;;;;;23.27;42.57;100667.63;5058171;28;45431;-59
2021/07/31 04:04:22;;;;;;;;;2.00;2.00;;;;;23.27;42.82;100673.72;5058074;28;45599;-59
2021/07/31 04:06:48;;;;;;;;;1.50;1.50;;;;;23.27;42.45;100667.63;5057911;28;46199;-59
2021/07/31 04:09:13;;;;;;;;;4.00;2.00;;;;;23.28;42.56;100674.59;5057931;28;45327;-59
2021/07/31 04:11:39;;;;;;;;;2.25;2.00;;;;;23.28;42.51;100674.59;5058039;28;45355;-59
2021/07/31 04:14:04;;;;;;;;;4.25;2.25;;;;;23.28;42.71;100666.66;5058115;28;45372;-59
2021/07/31 04:16:29;;;;;;;;;1.25;1.25;;;;;23.27;42.61;100660.50;5057593;28;46034;-59
2021/07/31 04:18:55;;;;;;;;;4.00;2.00;;;;;23.28;42.89;100664.84;5057997;28;45450;-59
2021/07/31 04:21:20;;;;;;;;;4.25;3.00;;;;;23.27;42.68;100664.97;5058423;28;45785;-55
2021/07/31 04:23:45;;;;;;;;;2.25;2.25;;;;;23.28;42.79;100661.38;5057964;28;45566;-59
2021/07/31 04:26:16;;;;;;;;;3.50;3.00;;;;;23.28;42.77;100666.66;5057352;28;52313;-59
2021/07/31 04:28:42;;;;;;;;;3.25;2.00;;;;;23.26;42.89;100661.47;5057544;28;45794;-58
2021/07/31 04:31:12;;;;;;;;;2.50;1.00;;;;;23.26;42.71;100672.03;5057749;28;45402;-53
2021/07/31 04:33:38;;;;;;;;;4.25;2.50;;;;;23.26;43.07;100674.69;5057945;28;45685;-58
2021/07/31 04:36:04;;;;;;;;;3.00;3.00;;;;;23.27;42.94;100667.63;5039402;28;48737;-58
2021/07/31 04:38:30;;;;;;;;;2.75;2.25;;;;;23.26;43.00;100677.31;5057569;28;45818;-58
2021/07/31 04:40:56;;;;;;;;;3.00;3.00;;;;;23.25;43.09;100673.03;5057749;28;45447;-58
2021/07/31 04:43:21;;;;;;;;;1.25;1.25;;;;;23.26;42.85;100666.75;5058004;28;45368;-59
2021/07/31 04:45:46;;;;;;;;;4.50;2.00;;;;;23.27;43.13;100670.25;5057225;28;46068;-58
2021/07/31 04:48:12;;;;;;;;;2.25;2.25;;;;;23.27;43.06;100672.91;5056986;28;55568;-59
2021/07/31 04:50:37;;;;;;;;;2.25;1.25;;;;;23.26;42.80;100672.03;5057360;28;45406;-59
2021/07/31 04:53:02;;;;;;;;;2.00;2.00;;;;;23.26;42.98;100673.84;5057403;28;45605;-58
2021/07/31 04:55:28;;;;;;;;;2.25;2.25;;;;;23.27;43.16;100679.03;5039079;28;47287;-54
2021/07/31 04:57:53;;;;;;;;;2.50;2.00;;;;;23.27;43.08;100678.19;5057499;28;45401;-58
2021/07/31 05:00:18;;;;;;;;;3.50;3.00;;;;;23.27;43.15;100684.31;5057271;28;45431;-57
2021/07/31 05:02:44;;;;;;;;;3.00;3.00;;;;;23.26;43.20;100679.97;5057455;28;45390;-57
2021/07/31 05:05:09;;;;;;;;;4.75;3.50;;;;;23.25;43.23;100669.50;5038892;28;45982;-59
2021/07/31 05:07:35;;;;;;;;;4.50;4.25;;;;;23.25;43.16;100680.09;5057104;28;45327;-55
2021/07/31 05:10:00;;;;;;;;;5.25;2.50;;;;;23.24;43.55;100679.25;5057211;28;45333;-59
2021/07/31 05:12:25;;;;;;;;;3.25;3.25;;;;;23.24;43.34;100678.41;5057529;28;45574;-59
2021/07/31 05:14:52;;;;;;;;;3.00;3.00;;;;;23.24;43.44;100683.69;5056723;28;45992;-59
2021/07/31 05:17:19;;;;;;;;;4.50;4.50;;;;;23.23;43.17;100682.00;5056516;28;45646;-59
2021/07/31 05:19:45;;;;;;;;;3.00;3.00;;;;;23.24;43.16;100688.97;5039372;28;45454;-59
2021/07/31 05:22:11;;;;;;;;;4.50;3.50;;;;;23.23;43.55;100682.00;5057173;28;45359;-58
2021/07/31 05:24:36;;;;;;;;;2.75;2.75;;;;;23.24;43.76;100686.31;5056719;28;49101;-60
2021/07/31 05:27:02;;;;;;;;;4.25;4.00;;;;;23.23;43.71;100676.69;5056687;28;45535;-58
2021/07/31 05:29:27;;;;;;;;;3.50;3.00;;;;;23.23;43.70;100679.34;5038961;28;45409;-58
2021/07/31 05:31:52;;;;;;;;;4.25;3.50;;;;;23.19;43.71;100680.50;5056710;28;45305;-59
2021/07/31 05:34:18;;;;;;;;;3.00;3.00;;;;;23.15;43.80;100690.44;5056563;28;45443;-59
2021/07/31 05:36:43;;;;;;;;;3.00;3.00;;;;;23.11;44.03;100684.50;5038558;28;45421;-59
2021/07/31 05:39:08;;;;;;;;;6.00;5.00;;;;;23.06;43.76;100686.63;5056677;28;45241;-58
2021/07/31 05:41:34;;;;;;;;;3.00;3.00;;;;;23.02;44.02;100685.13;5056715;28;45345;-56
2021/07/31 05:43:59;;;;;;;;;3.00;3.00;;;;;22.98;44.12;100689.78;5038307;28;46426;-50
2021/07/31 05:46:25;;;;;;;;;4.00;2.50;;;;;22.93;44.06;100686.59;5056446;28;50239;-57
2021/07/31 05:48:50;;;;;;;;;3.00;3.00;;;;;22.87;44.22;100686.19;5056629;28;45201;-59
2021/07/31 05:51:16;;;;;;;;;4.75;4.75;;;;;22.81;44.48;100687.47;5056584;28;45324;-57
2021/07/31 05:53:42;;;;;;;;;4.00;3.50;;;;;22.74;44.55;100692.31;5056232;28;46436;-60
2021/07/31 05:56:08;;;;;;;;;4.75;3.00;;;;;22.69;44.67;100689.09;5038355;28;45386;-59
2021/07/31 05:58:34;;;;;;;;;4.75;4.75;;;;;22.64;44.65;100694.69;5056204;28;45431;-59
2021/07/31 06:00:59;;;;;;;;;5.25;3.75;;;;;22.63;44.81;100694.81;5056511;28;45451;-59
2021/07/31 06:03:25;;;;;;;;;4.00;4.00;;;;;22.60;44.70;100697.66;5055841;28;52738;-56
2021/07/31 06:05:50;;;;;;;;;5.25;5.25;;;;;22.56;44.96;100697.00;5056067;28;45371;-58
2021/07/31 06:08:15;;;;;;;;;4.75;3.00;;;;;22.51;45.34;100692.03;5055800;28;45993;-59
2021/07/31 06:10:41;;;;;;;;;5.00;4.00;;;;;22.51;45.06;100699.09;5056289;28;45531;-59
2021/07/31 06:13:06;;;;;;;;;3.50;3.50;;;;;22.50;45.42;100692.13;5055538;28;53843;-57
2021/07/31 06:15:31;;;;;;;;;4.00;3.00;;;;;22.45;45.25;100696.88;5055554;28;48369;-49
2021/07/31 06:17:56;;;;;;;;;4.00;3.25;;;;;22.43;45.41;100699.63;5056338;28;45389;-57
2021/07/31 06:20:22;;;;;;;;;4.00;3.50;;;;;22.41;45.36;100709.44;5056078;28;45511;-59
2021/07/31 06:22:47;;;;;;;;;2.25;2.25;;;;;22.42;45.56;100705.84;5055798;28;45419;-59
2021/07/31 06:25:12;;;;;;;;;4.00;4.00;;;;;22.41;45.47;100709.44;5055917;28;49486;-58
2021/07/31 06:27:38;;;;;;;;;4.00;3.75;;;;;22.41;45.62;100719.13;5056168;28;45337;-60
2021/07/31 06:30:04;;;;;;;;;5.25;4.75;;;;;22.38;45.94;100717.53;5055797;28;45250;-57
2021/07/31 06:32:29;;;;;;;;;3.50;3.00;;;;;22.38;45.53;100718.34;5055992;28;46482;-60
2021/07/31 06:34:55;;;;;;;;;4.25;3.00;;;;;22.35;45.70;100728.28;5037660;28;45362;-56
2021/07/31 06:37:20;;;;;;;;;4.75;4.00;;;;;22.33;45.74;100725.75;5055939;28;45404;-59
2021/07/31 06:39:46;;;;;;;;;4.75;4.75;;;;;22.31;45.91;100726.81;5055988;28;45343;-55
2021/07/31 06:42:11;;;;;;;;;3.00;2.00;;;;;22.27;46.07;100722.66;5055345;28;45459;-55
2021/07/31 06:44:36;;;;;;;;;4.50;4.25;;;;;22.27;46.11;100720.84;5055644;28;45249;-52
2021/07/31 06:47:02;;;;;;;;;5.75;4.50;;;;;22.24;46.50;100727.19;5037778;28;45908;-59
2021/07/31 06:49:27;;;;;;;;;8.75;5.75;;;;;22.21;46.24;100719.44;5055819;28;45638;-59
2021/07/31 06:51:53;;;;;;;;;4.00;3.00;;;;;22.18;46.24;100718.81;5055429;28;52237;-58
2021/07/31 06:54:18;;;;;;;;;8.00;3.75;;;;;22.15;46.07;100717.22;5055363;28;45450;-56
2021/07/31 06:56:43;;;;;;;;;3.75;3.75;;;;;22.13;46.46;100724.38;5055542;28;45414;-56
2021/07/31 06:59:09;;;;;;;;;4.00;4.00;;;;;22.12;46.15;100722.69;5055726;28;45270;-58
2021/07/31 07:01:34;;;;;;;;;5.25;5.00;;;;;22.12;46.39;100725.31;5036945;28;48145;-58
2021/07/31 07:03:59;;;;;;;;;5.25;4.50;;;;;22.11;46.48;100720.97;5055700;28;45481;-58
2021/07/31 07:06:25;;;;;;;;;3.00;3.00;;;;;22.10;46.41;100727.25;5055510;28;45897;-58
2021/07/31 07:08:50;;;;;;;;;5.25;4.00;;;;;22.09;46.71;100728.19;5055550;28;45356;-57
2021/07/31 07:11:18;;;;;;;;;6.50;5.50;;;;;22.09;46.73;100734.28;5055379;28;47085;-59
2021/07/31 07:13:43;;;;;;;;;4.00;4.00;;;;;22.07;46.56;100725.63;5055016;28;45179;-58
2021/07/31 07:16:09;;;;;;;;;6.00;5.00;;;;;22.06;46.65;100729.19;5055483;28;45285;-57
2021/07/31 07:18:34;;;;;;;;;5.00;5.00;;;;;22.08;46.84;100739.69;5055607;28;45326;-55
2021/07/31 07:21:04;;;;;;;;;6.25;5.25;;;;;22.06;46.66;100731.84;5056404;28;45499;-63
2021/07/31 07:23:30;;;;;;;;;3.25;3.25;;;;;22.05;46.43;100737.22;5059003;28;45806;-60
2021/07/31 07:25:55;;;;;;;;;4.25;4.00;;;;;22.04;46.63;100733.75;5058456;28;45438;-58
2021/07/31 07:28:20;;;;;;;;;4.00;4.00;;;;;22.03;46.78;100739.09;5058902;28;45339;-58
2021/07/31 07:30:46;;;;;;;;;7.75;4.75;;;;;22.03;46.51;100729.41;5058463;28;45669;-59
2021/07/31 07:33:11;;;;;;;;;4.00;4.00;;;;;22.02;46.39;100737.41;5058361;28;45383;-57
2021/07/31 07:35:37;;;;;;;;;5.75;4.00;;;;;22.02;46.58;100737.41;5058619;28;45551;-59
2021/07/31 07:38:02;;;;;;;;;4.00;4.00;;;;;22.01;46.83;100733.94;5059147;28;45406;-57
2021/07/31 07:40:27;;;;;;;;;7.50;4.75;;;;;22.03;46.72;100741.75;5057932;28;51775;-57
2021/07/31 07:42:52;;;;;;;;;5.00;5.00;;;;;22.03;46.78;100733.84;5058262;28;45347;-58
2021/07/31 07:45:18;;;;;;;;;4.75;4.00;;;;;22.03;46.44;100734.69;5058346;28;45446;-58
2021/07/31 07:47:43;;;;;;;;;6.50;6.50;;;;;22.04;46.79;100740.81;5040597;28;45550;-58
2021/07/31 07:50:10;;;;;;;;;5.00;5.00;;;;;22.04;46.78;100744.31;5058236;28;46194;-58
2021/07/31 07:52:36;;;;;;;;;4.00;4.00;;;;;22.03;46.67;100739.97;5058545;28;45660;-59
2021/07/31 07:55:01;;;;;;;;;4.75;4.25;;;;;22.07;47.01;100737.97;5040612;28;45419;-59
2021/07/31 07:57:26;;;;;;;;;4.00;4.00;;;;;22.11;46.83;100738.63;5058471;28;45638;-59
2021/07/31 07:59:52;;;;;;;;;4.25;4.25;;;;;22.13;47.01;100740.22;5039805;28;46556;-59
2021/07/31 08:02:17;;;;;;;;;5.25;5.25;;;;;22.16;46.83;100740.03;5057942;28;45225;-56
2021/07/31 08:04:44;;;;;;;;;4.50;4.25;;;;;22.16;46.78;100734.75;5040051;28;45232;-60
2021/07/31 08:07:10;;;;;;;;;4.00;4.00;;;;;22.19;46.78;100737.19;5058311;28;45257;-61
2021/07/31 08:09:37;;;;;;;;;7.25;4.00;;;;;22.21;46.56;100745.00;5058138;28;47323;-55
2021/07/31 08:12:06;;;;;;;;;4.25;3.50;;;;;22.21;46.48;100737.94;5057963;28;45386;-61
2021/07/31 08:14:32;;;;;;;;;4.00;4.00;;;;;22.22;46.74;100742.25;5040024;28;45313;-55
2021/07/31 08:16:58;;;;;;;;;5.00;4.00;;;;;22.23;46.54;100741.31;5058154;28;45654;-50
2021/07/31 08:19:23;;;;;;;;;6.00;5.00;;;;;22.24;46.54;100731.63;5057894;28;45426;-54
2021/07/31 08:21:49;;;;;;;;;6.75;5.50;;;;;22.24;46.39;100743.03;5057737;28;45523;-54
2021/07/31 08:24:16;;;;;;;;;5.00;5.00;;;;;22.23;46.31;100738.69;5057822;28;45415;-54
2021/07/31 08:26:43;;;;;;;;;4.25;4.25;;;;;22.26;46.20;100745.59;5040041;28;45486;-53
2021/07/31 08:29:09;;;;;;;;;7.75;4.50;;;;;22.27;46.37;100744.59;5057505;28;47279;-52
2021/07/31 08:31:38;;;;;;;;;5.75;5.75;;;;;22.28;46.30;100737.56;5057635;28;45343;-53
2021/07/31 08:34:03;;;;;;;;;5.25;4.00;;;;;22.30;46.31;100743.59;5058218;28;45934;-54
2021/07/31 08:36:28;;;;;;;;;4.25;4.25;;;;;22.31;46.42;100740.84;5057776;28;45268;-58
2021/07/31 08:38:54;;;;;;;;;5.50;5.50;;;;;22.33;46.15;100736.31;5057271;28;46270;-58
2021/07/31 08:41:21;;;;;;;;;6.00;4.00;;;;;22.35;46.02;100739.69;5057174;28;45470;-58
2021/07/31 08:43:46;;;;;;;;;5.00;4.00;;;;;22.37;46.11;100734.31;5039547;28;45343;-60
2021/07/31 08:46:12;;;;;;;;;4.50;4.50;;;;;22.38;45.98;100739.47;5057723;28;45618;-55
2021/07/31 08:48:37;;;;;;;;;6.00;5.25;;;;;22.42;45.64;100737.53;5057516;28;46393;-49
2021/07/31 08:51:03;;;;;;;;;4.50;4.50;;;;;22.45;46.11;100744.41;5057287;28;45396;-52
2021/07/31 08:53:30;;;;;;;;;5.00;5.00;;;;;22.46;46.00;100741.66;5057273;28;45229;-58
2021/07/31 08:55:56;;;;;;;;;5.50;5.50;;;;;22.46;45.82;100731.09;5057127;28;45360;-57
2021/07/31 08:58:25;;;;;;;;;6.00;6.00;;;;;22.47;45.79;100734.59;5057157;28;45521;-54
2021/07/31 09:00:51;;;;;;;;;7.00;5.75;;;;;22.47;45.95;100738.06;5056892;28;45889;-50
2021/07/31 09:03:17;;;;;;;;;5.50;4.00;;;;;22.50;45.62;100737.03;5057321;28;45395;-53
2021/07/31 09:05:43;;;;;;;;;3.75;3.75;;;;;22.53;45.71;100739.47;5057448;28;45474;-53
2021/07/31 09:08:09;;;;;;;;;5.00;5.00;;;;;22.55;45.76;100730.50;5057060;28;45955;-57
2021/07/31 09:10:38;;;;;;;;;5.50;5.25;;;;;22.58;45.76;100734.75;5056944;28;45407;-57
2021/07/31 09:13:07;;;;;;;;;5.50;5.50;;;;;22.60;45.71;100743.38;5057175;28;45510;-49
2021/07/31 09:15:35;;;;;;;;;7.00;5.00;;;;;22.62;45.78;100740.66;5057288;28;45342;-52
2021/07/31 09:18:33;;;;;;;;;4.00;4.00;;;;;22.62;45.91;100741.50;5056693;28;46281;-60
2021/07/31 09:21:15;;;;;;;;;5.50;4.00;;;;;22.63;45.71;100737.09;5056538;28;45970;-53
2021/07/31 09:23:48;;;;;;;;;5.00;5.00;;;;;22.66;45.65;100742.13;5039663;28;45470;-62
2021/07/31 09:26:21;;;;;;;;;2.50;2.50;;;;;22.64;45.38;100736.97;5057047;28;45411;-52
2021/07/31 09:28:59;;;;;;;;;5.00;4.00;;;;;22.66;45.59;100728.94;5056787;28;45501;-49
2021/07/31 09:31:24;;;;;;;;;7.25;6.00;;;;;22.68;45.17;100729.69;5056568;28;45380;-50
2021/07/31 09:33:50;;;;;;;;;4.00;4.00;;;;;22.66;45.54;100732.44;5056676;28;45383;-50
2021/07/31 09:36:16;;;;;;;;;5.25;4.25;;;;;22.64;45.07;100725.56;5057171;28;45328;-53
2021/07/31 09:38:44;;;;;;;;;4.00;4.00;;;;;22.62;44.95;100730.94;5056521;28;46966;-49
2021/07/31 09:41:40;;;;;;;;;6.50;5.50;;;;;22.62;45.29;100724.81;5056804;28;45435;-49
2021/07/31 09:44:16;;;;;;;;;4.75;4.00;;;;;22.61;45.07;100723.13;5049038;28;45300;-54
2021/07/31 09:46:54;;;;;;;;;5.50;4.00;;;;;22.60;45.04;100718.78;5056982;28;45429;-56
2021/07/31 09:49:21;;;;;;;;;3.00;3.00;;;;;22.58;45.05;100720.69;5056316;28;45366;-54
2021/07/31 09:51:51;;;;;;;;;5.75;5.00;;;;;22.57;44.91;100722.47;5056550;28;45734;-58
2021/07/31 09:54:20;;;;;;;;;4.00;3.00;;;;;22.57;44.82;100722.47;5056411;28;45443;-53
2021/07/31 09:56:48;;;;;;;;;5.00;5.00;;;;;22.55;44.82;100725.22;5056672;28;45401;-54
2021/07/31 09:59:16;;;;;;;;;4.00;4.00;;;;;22.55;44.73;100717.28;5056357;28;45601;-51
2021/07/31 10:01:47;;;;;;;;;6.00;5.25;;;;;22.55;45.09;100709.34;5056484;28;45280;-53
2021/07/31 10:04:15;;;;;;;;;6.25;4.00;;;;;22.56;44.82;100710.22;5038399;28;45578;-50
2021/07/31 10:06:41;;;;;;;;;5.25;4.75;;;;;22.57;45.17;100704.00;5056840;28;45470;-56
2021/07/31 10:09:08;;;;;;;;;4.25;4.25;;;;;22.59;44.69;100704.75;5056118;28;45502;-51
2021/07/31 10:11:35;;;;;;;;;4.25;3.25;;;;;22.59;44.76;100706.53;5038108;28;45462;-49
2021/07/31 10:14:01;;;;;;;;;4.50;4.00;;;;;22.59;44.95;100709.16;5056232;28;45379;-54
2021/07/31 10:16:28;;;;;;;;;6.00;5.00;;;;;22.59;44.89;100703.88;5056306;28;45501;-56
2021/07/31 10:19:07;;;;;;;;;5.00;4.00;;;;;22.58;45.16;100703.06;5037836;28;48482;-59
2021/07/31 10:21:45;;;;;;;;;6.00;5.00;;;;;22.59;44.76;100699.47;5055792;28;45328;-55
2021/07/31 10:24:10;;;;;;;;;5.00;5.00;;;;;22.59;44.79;100694.19;5056433;28;45320;-58
2021/07/31 10:26:36;;;;;;;;;5.50;3.25;;;;;22.62;44.72;100693.13;5056267;28;45316;-57
2021/07/31 10:29:32;;;;;;;;;4.00;4.00;;;;;22.61;44.84;100704.63;5055594;28;46875;-55
2021/07/31 10:32:32;;;;;;;;;5.25;5.25;;;;;22.59;45.23;100693.31;5055855;28;45287;-59
2021/07/31 10:35:01;;;;;;;;;6.75;5.00;;;;;22.58;44.91;100691.63;5041244;28;45572;-59
2021/07/31 10:37:29;;;;;;;;;4.00;4.00;;;;;22.59;44.78;100690.69;5056103;28;45664;-59
2021/07/31 10:40:04;;;;;;;;;3.50;3.50;;;;;22.61;45.07;100696.72;5055377;28;46201;-58
2021/07/31 10:42:51;;;;;;;;;3.25;3.25;;;;;22.63;45.07;100698.28;5055825;28;45388;-53
2021/07/31 10:45:17;;;;;;;;;5.50;3.25;;;;;22.66;44.84;100697.22;5055822;28;45489;-57
2021/07/31 10:47:43;;;;;;;;;4.75;3.25;;;;;22.69;45.01;100694.38;5056133;28;45689;-58
2021/07/31 10:50:39;;;;;;;;;8.00;5.75;;;;;22.70;44.86;100689.03;5055726;28;45431;-57
2021/07/31 10:53:10;;;;;;;;;4.75;4.00;;;;;22.73;44.82;100685.31;5038752;28;45343;-59
2021/07/31 10:55:35;;;;;;;;;4.75;3.00;;;;;22.75;44.77;100683.44;5057700;28;45542;-62
2021/07/31 10:58:14;;;;;;;;;3.33;3.33;;;;;22.78;44.71;100683.19;5059387;28;45622;-52
2021/07/31 11:00:50;;;;;;;;;5.50;4.25;;;;;22.81;44.65;100684.81;5058853;28;45634;-59
2021/07/31 11:03:18;;;;;;;;;6.50;5.75;;;;;22.83;44.54;100686.41;5058782;28;45661;-56
2021/07/31 11:05:51;;;;;;;;;5.00;4.00;;;;;22.86;44.60;100690.63;5059404;28;45438;-58
2021/07/31 11:08:27;;;;;;;;;5.25;3.00;;;;;22.89;44.53;100690.41;5059352;28;45248;-55
2021/07/31 11:10:57;;;;;;;;;5.50;4.25;;;;;22.91;44.56;100688.53;5058763;28;46165;-56
2021/07/31 11:13:22;;;;;;;;;5.00;5.00;;;;;22.94;44.63;100683.00;5040975;28;45691;-59
2021/07/31 11:15:59;;;;;;;;;3.67;3.67;;;;;22.95;44.68;100684.69;5059009;28;45316;-60
2021/07/31 11:18:26;;;;;;;;;5.75;3.75;;;;;22.98;44.62;100688.97;5058898;28;45523;-57
2021/07/31 11:20:53;;;;;;;;;5.00;3.00;;;;;22.99;44.59;100685.34;5058412;28;46111;-52
2021/07/31 11:23:20;;;;;;;;;5.00;5.00;;;;;23.00;44.53;100673.81;5058531;28;45627;-57